createdAt,value
2019-03-25T00:00:59.875Z,94.60
2019-03-25T00:03:28.048Z,94.50
2019-03-25T00:05:56.305Z,94.50
2019-03-25T00:08:25.069Z,94.60
2019-03-25T00:10:53.647Z,94.50
2019-03-25T00:13:21.858Z,94.40
2019-03-25T00:15:50.242Z,94.40
2019-03-25T00:18:18.586Z,94.30
2019-03-25T00:20:46.830Z,94.50
2019-03-25T00:23:15.026Z,94.80
2019-03-25T00:25:43.286Z,94.80
2019-03-25T00:28:13.698Z,95.10
2019-03-25T00:30:41.622Z,95.10
2019-03-25T00:33:09.784Z,95.00
2019-03-25T00:35:38.087Z,95.00
2019-03-25T00:38:06.497Z,94.90
2019-03-25T00:40:34.849Z,94.90
2019-03-25T00:43:03.110Z,94.80
2019-03-25T00:45:31.337Z,94.80
2019-03-25T00:47:59.666Z,94.90
2019-03-25T00:50:28.029Z,95.00
2019-03-25T00:52:56.312Z,95.00
2019-03-25T00:55:24.562Z,95.20
2019-03-25T00:57:52.902Z,95.40
2019-03-25T01:00:21.204Z,95.40
2019-03-25T01:02:49.518Z,95.30
2019-03-25T01:05:18.477Z,95.70
2019-03-25T01:07:46.904Z,95.30
2019-03-25T01:10:15.618Z,95.70
2019-03-25T01:12:43.794Z,95.40
2019-03-25T01:15:12.150Z,95.40
2019-03-25T01:17:40.517Z,95.40
2019-03-25T01:20:09.238Z,95.50
2019-03-25T01:22:37.668Z,95.50
2019-03-25T01:25:06.202Z,95.60
2019-03-25T01:27:34.497Z,95.80
2019-03-25T01:30:02.834Z,95.80
2019-03-25T01:32:31.201Z,95.90
2019-03-25T01:34:59.397Z,96.00
2019-03-25T01:37:27.835Z,96.00
2019-03-25T01:39:56.052Z,96.00
2019-03-25T01:42:24.268Z,96.10
2019-03-25T01:44:52.504Z,96.10
2019-03-25T01:47:21.068Z,96.40
2019-03-25T01:49:49.244Z,96.10
2019-03-25T01:52:17.459Z,96.10
2019-03-25T01:54:45.678Z,96.00
2019-03-25T01:57:13.950Z,96.00
2019-03-25T01:59:42.254Z,95.90
2019-03-25T02:02:10.825Z,95.80
2019-03-25T02:04:39.186Z,95.70
2019-03-25T02:07:07.359Z,95.70
2019-03-25T02:09:35.549Z,95.60
2019-03-25T02:12:03.989Z,95.50
2019-03-25T02:14:32.422Z,95.50
2019-03-25T02:17:00.602Z,95.50
2019-03-25T02:19:28.975Z,95.60
2019-03-25T02:21:57.146Z,95.80
2019-03-25T02:24:25.355Z,95.70
2019-03-25T02:26:53.773Z,95.70
2019-03-25T02:29:22.596Z,95.90
2019-03-25T02:31:50.903Z,96.10
2019-03-25T02:34:19.685Z,96.20
2019-03-25T02:36:48.003Z,96.30
2019-03-25T02:39:16.324Z,96.30
2019-03-25T02:41:44.724Z,96.20
2019-03-25T02:44:13.109Z,96.10
2019-03-25T02:46:41.455Z,96.60
2019-03-25T02:49:09.652Z,96.20
2019-03-25T02:51:38.111Z,96.10
2019-03-25T02:54:06.315Z,96.30
2019-03-25T02:56:34.632Z,96.00
2019-03-25T02:59:03.072Z,96.10
2019-03-25T03:01:31.452Z,96.10
2019-03-25T03:04:00.330Z,96.00
2019-03-25T03:06:28.675Z,96.30
2019-03-25T03:08:57.059Z,96.20
2019-03-25T03:11:25.321Z,96.30
2019-03-25T03:13:53.616Z,96.40
2019-03-25T03:16:22.064Z,96.40
2019-03-25T03:18:50.322Z,96.40
2019-03-25T03:21:18.747Z,96.40
2019-03-25T03:23:47.166Z,96.40
2019-03-25T03:26:15.407Z,96.40
2019-03-25T03:28:43.681Z,96.70
2019-03-25T03:31:11.958Z,96.70
2019-03-25T03:33:41.189Z,96.70
2019-03-25T03:36:09.421Z,96.60
2019-03-25T03:38:37.831Z,96.60
2019-03-25T03:41:06.387Z,96.60
2019-03-25T03:43:34.525Z,96.60
2019-03-25T03:46:02.950Z,96.80
2019-03-25T03:48:31.205Z,96.80
2019-03-25T03:51:00.236Z,96.80
2019-03-25T03:53:28.617Z,96.90
2019-03-25T03:56:11.588Z,96.90
2019-03-25T03:58:29.724Z,96.90
2019-03-25T04:00:58.088Z,97.00
2019-03-25T04:03:26.463Z,97.00
2019-03-25T04:05:54.882Z,96.90
2019-03-25T04:08:23.237Z,97.00
2019-03-25T04:10:51.577Z,97.00
2019-03-25T04:13:20.026Z,97.10
2019-03-25T04:15:48.357Z,97.20
2019-03-25T04:18:16.530Z,97.30
2019-03-25T04:20:44.912Z,97.30
2019-03-25T04:23:14.111Z,97.40
2019-03-25T04:25:42.568Z,97.50
2019-03-25T04:28:10.883Z,97.50
2019-03-25T04:30:39.026Z,97.50
2019-03-25T04:33:07.306Z,97.50
2019-03-25T04:35:35.532Z,97.50
2019-03-25T04:38:03.976Z,97.60
2019-03-25T04:40:32.316Z,97.70
2019-03-25T04:43:00.609Z,97.80
2019-03-25T04:45:28.907Z,97.80
2019-03-25T04:47:57.301Z,97.90
2019-03-25T04:50:25.563Z,98.00
2019-03-25T04:52:53.827Z,98.10
2019-03-25T04:55:21.958Z,98.20
2019-03-25T04:57:50.224Z,98.50
2019-03-25T05:00:33.431Z,98.40
2019-03-25T05:03:01.969Z,98.60
2019-03-25T05:05:30.158Z,98.80
2019-03-25T05:07:59.014Z,98.80
2019-03-25T05:10:27.901Z,98.80
2019-03-25T05:12:56.318Z,98.90
2019-03-25T05:15:25.212Z,98.90
2019-03-25T05:17:53.991Z,99.00
2019-03-25T05:20:22.148Z,99.10
2019-03-25T05:22:50.785Z,99.20
2019-03-25T05:25:21.211Z,99.20
2019-03-25T05:27:49.549Z,99.30
2019-03-25T05:30:18.347Z,99.20
2019-03-25T05:32:46.607Z,99.10
2019-03-25T05:35:14.855Z,99.10
2019-03-25T05:37:43.065Z,99.20
2019-03-25T05:40:11.443Z,99.20
2019-03-25T05:42:40.015Z,99.20
2019-03-25T05:45:08.615Z,99.20
2019-03-25T05:47:37.201Z,99.20
2019-03-25T05:50:05.950Z,99.10
2019-03-25T05:52:34.162Z,99.30
2019-03-25T05:55:02.476Z,98.90
2019-03-25T05:57:30.744Z,98.80
2019-03-25T05:59:59.009Z,98.70
2019-03-25T06:02:27.466Z,98.50
2019-03-25T06:04:56.708Z,98.40
2019-03-25T06:07:25.198Z,98.40
2019-03-25T06:09:53.707Z,98.20
2019-03-25T06:12:22.260Z,98.20
2019-03-25T06:14:50.459Z,98.20
2019-03-25T06:17:18.862Z,98.40
2019-03-25T06:19:47.314Z,98.30
2019-03-25T06:22:15.565Z,98.20
2019-03-25T06:24:44.395Z,98.20
2019-03-25T06:27:14.630Z,98.20
2019-03-25T06:29:43.185Z,98.00
2019-03-25T06:32:11.357Z,97.80
2019-03-25T06:34:39.609Z,97.90
2019-03-25T06:37:07.910Z,97.80
2019-03-25T06:39:36.194Z,97.80
2019-03-25T06:42:04.612Z,97.70
2019-03-25T06:44:32.865Z,97.70
2019-03-25T06:47:01.141Z,97.70
2019-03-25T06:49:29.372Z,97.70
2019-03-25T06:51:57.575Z,97.60
2019-03-25T06:54:25.932Z,97.60
2019-03-25T06:56:54.327Z,97.40
2019-03-25T06:59:22.822Z,97.30
2019-03-25T07:01:50.978Z,97.10
2019-03-25T07:04:19.989Z,97.00
2019-03-25T07:06:48.300Z,96.90
2019-03-25T07:09:18.635Z,96.40
2019-03-25T07:11:46.747Z,96.00
2019-03-25T07:14:15.406Z,95.60
2019-03-25T07:16:44.429Z,95.20
2019-03-25T07:19:13.255Z,94.80
2019-03-25T07:21:42.696Z,94.50
2019-03-25T07:24:11.078Z,94.60
2019-03-25T07:26:39.288Z,94.10
2019-03-25T07:29:07.625Z,93.30
2019-03-25T07:31:35.985Z,92.10
2019-03-25T07:34:04.414Z,91.00
2019-03-25T07:36:33.709Z,90.20
2019-03-25T07:39:02.085Z,85.40
2019-03-25T07:41:31.841Z,82.10
2019-03-25T07:43:59.987Z,76.10
2019-03-25T07:46:28.420Z,75.90
2019-03-25T07:48:56.834Z,74.00
2019-03-25T07:51:25.110Z,74.30
2019-03-25T07:53:53.593Z,72.60
2019-03-25T07:56:22.047Z,74.10
2019-03-25T07:58:50.320Z,76.50
2019-03-25T08:01:18.455Z,78.00
2019-03-25T08:03:46.817Z,81.60
2019-03-25T08:06:15.108Z,84.80
2019-03-25T08:08:43.363Z,87.50
2019-03-25T08:11:11.708Z,89.20
2019-03-25T08:13:39.956Z,89.80
2019-03-25T08:16:08.479Z,90.00
2019-03-25T08:18:36.601Z,90.40
2019-03-25T08:21:05.029Z,91.30
2019-03-25T08:23:33.298Z,91.80
2019-03-25T08:26:01.477Z,92.20
2019-03-25T08:28:29.817Z,92.20
2019-03-25T08:30:58.671Z,91.80
2019-03-25T08:33:26.872Z,90.70
2019-03-25T08:35:55.268Z,89.80
2019-03-25T08:38:23.671Z,86.40
2019-03-25T08:40:52.146Z,77.50
2019-03-25T08:43:20.319Z,69.30
2019-03-25T08:45:48.739Z,62.00
2019-03-25T08:48:17.166Z,55.00
2019-03-25T08:50:45.337Z,50.50
2019-03-25T08:53:13.501Z,47.00
2019-03-25T08:55:41.812Z,46.60
2019-03-25T08:58:12.167Z,43.10
2019-03-25T09:00:40.816Z,42.50
2019-03-25T09:03:09.171Z,41.30
2019-03-25T09:05:37.754Z,40.20
2019-03-25T09:08:06.232Z,39.10
2019-03-25T09:10:34.696Z,39.50
2019-03-25T09:13:03.264Z,39.80
2019-03-25T09:15:31.492Z,41.90
2019-03-25T09:17:59.850Z,40.40
2019-03-25T09:20:28.129Z,37.50
2019-03-25T09:22:56.359Z,36.00
2019-03-25T09:25:24.919Z,35.80
2019-03-25T09:27:53.296Z,36.10
2019-03-25T09:31:18.927Z,38.20
2019-03-25T09:33:48.601Z,41.90
2019-03-25T09:36:19.250Z,45.60
2019-03-25T09:38:48.113Z,44.00
2019-03-25T09:41:16.733Z,42.00
2019-03-25T09:43:45.315Z,40.50
2019-03-25T09:46:13.813Z,39.80
2019-03-25T09:48:42.323Z,40.90
2019-03-25T09:51:10.806Z,40.10
2019-03-25T09:53:39.305Z,42.50
2019-03-25T09:56:07.600Z,42.90
2019-03-25T09:58:36.738Z,43.80
2019-03-25T10:01:05.320Z,45.80
2019-03-25T10:03:33.624Z,46.50
2019-03-25T10:06:01.978Z,46.20
2019-03-25T10:08:30.432Z,43.90
2019-03-25T10:10:58.972Z,43.90
2019-03-25T10:13:28.380Z,43.70
2019-03-25T10:15:56.636Z,41.30
2019-03-25T10:18:24.973Z,36.40
2019-03-25T10:20:53.263Z,33.80
2019-03-25T10:23:21.434Z,31.80
2019-03-25T10:25:49.622Z,31.80
2019-03-25T10:28:17.971Z,33.70
2019-03-25T10:30:46.476Z,35.70
2019-03-25T10:33:14.844Z,37.60
2019-03-25T10:35:43.208Z,38.80
2019-03-25T10:38:19.456Z,40.60
2019-03-25T10:40:42.425Z,41.50
2019-03-25T10:43:10.816Z,36.70
2019-03-25T10:45:39.300Z,33.70
2019-03-25T10:48:07.678Z,30.80
2019-03-25T10:50:36.059Z,30.20
2019-03-25T10:53:04.704Z,29.40
2019-03-25T10:55:33.413Z,27.80
2019-03-25T10:58:01.770Z,25.40
2019-03-25T11:00:30.154Z,24.80
2019-03-25T11:02:59.460Z,24.60
2019-03-25T11:05:27.744Z,23.40
2019-03-25T11:07:56.081Z,24.70
2019-03-25T11:10:24.370Z,24.90
2019-03-25T11:12:52.627Z,24.70
2019-03-25T11:15:21.590Z,24.90
2019-03-25T11:17:49.816Z,25.50
2019-03-25T11:20:18.580Z,25.80
2019-03-25T11:22:46.878Z,27.00
2019-03-25T11:25:27.812Z,27.20
2019-03-25T11:27:56.229Z,27.00
2019-03-25T11:30:59.937Z,28.10
2019-03-25T11:33:28.439Z,29.50
2019-03-25T11:35:56.981Z,30.60
2019-03-25T11:38:25.568Z,32.30
2019-03-25T11:40:53.840Z,34.00
2019-03-25T11:43:22.341Z,35.80
2019-03-25T11:45:50.967Z,37.30
2019-03-25T11:48:20.342Z,38.60
2019-03-25T11:50:48.642Z,40.70
2019-03-25T11:53:17.198Z,43.50
2019-03-25T11:55:46.457Z,45.40
2019-03-25T11:58:14.883Z,46.30
2019-03-25T12:00:43.963Z,47.40
2019-03-25T12:03:13.875Z,48.20
2019-03-25T12:05:42.391Z,49.40
2019-03-25T12:08:11.017Z,51.40
2019-03-25T12:10:39.391Z,53.30
2019-03-25T12:13:07.596Z,55.90
2019-03-25T12:15:36.118Z,58.80
2019-03-25T12:18:04.565Z,63.80
2019-03-25T12:20:32.904Z,69.70
2019-03-25T12:23:01.045Z,74.60
2019-03-25T12:25:29.467Z,79.30
2019-03-25T12:27:57.765Z,82.60
2019-03-25T12:30:26.056Z,82.30
2019-03-25T12:33:03.665Z,77.90
2019-03-25T12:35:24.713Z,74.50
2019-03-25T12:37:52.978Z,71.60
2019-03-25T12:40:21.352Z,69.00
2019-03-25T12:42:49.702Z,66.50
2019-03-25T12:45:18.153Z,65.00
2019-03-25T12:47:46.636Z,63.60
2019-03-25T12:50:15.299Z,64.30
2019-03-25T12:52:43.772Z,63.80
2019-03-25T12:55:12.173Z,65.50
2019-03-25T12:57:40.620Z,69.00
2019-03-25T13:00:10.054Z,70.10
2019-03-25T13:02:38.297Z,68.70
2019-03-25T13:05:07.066Z,60.30
2019-03-25T13:07:35.471Z,50.60
2019-03-25T13:10:04.542Z,46.30
2019-03-25T13:12:32.899Z,43.60
2019-03-25T13:15:01.146Z,44.10
2019-03-25T13:17:29.422Z,44.90
2019-03-25T13:19:57.601Z,47.80
2019-03-25T13:22:26.218Z,50.30
2019-03-25T13:24:54.522Z,52.80
2019-03-25T13:27:23.015Z,55.80
2019-03-25T13:29:52.812Z,58.30
2019-03-25T13:32:21.236Z,60.20
2019-03-25T13:34:49.469Z,62.50
2019-03-25T13:37:17.860Z,66.20
2019-03-25T13:39:46.038Z,70.20
2019-03-25T13:42:14.304Z,71.90
2019-03-25T13:44:42.474Z,73.90
2019-03-25T13:47:10.733Z,78.50
2019-03-25T13:49:38.913Z,82.00
2019-03-25T13:52:07.147Z,83.00
2019-03-25T13:54:35.380Z,84.80
2019-03-25T13:57:03.969Z,85.40
2019-03-25T13:59:32.502Z,86.50
2019-03-25T14:02:00.959Z,88.50
2019-03-25T14:04:30.558Z,87.80
2019-03-25T14:06:59.012Z,87.50
2019-03-25T14:09:27.182Z,88.30
2019-03-25T14:11:55.501Z,89.60
2019-03-25T14:14:23.761Z,90.20
2019-03-25T14:16:51.890Z,90.60
2019-03-25T14:19:20.082Z,91.50
2019-03-25T14:21:48.219Z,91.10
2019-03-25T14:24:16.950Z,91.90
2019-03-25T14:26:46.378Z,94.10
2019-03-25T14:29:14.584Z,93.30
2019-03-25T14:31:42.955Z,92.60
2019-03-25T14:34:11.353Z,92.40
2019-03-25T14:36:40.610Z,93.10
2019-03-25T14:39:10.919Z,92.90
2019-03-25T14:42:43.605Z,92.90
2019-03-25T14:45:12.294Z,93.00
2019-03-25T14:47:40.874Z,92.40
2019-03-25T14:50:09.701Z,91.80
2019-03-25T14:52:41.238Z,91.60
2019-03-25T14:55:18.814Z,91.60
2019-03-25T14:57:47.590Z,91.80
2019-03-25T15:00:24.670Z,91.70
2019-03-25T15:02:47.225Z,91.60
2019-03-25T15:05:16.053Z,91.70
2019-03-25T15:07:44.559Z,92.00
2019-03-25T15:10:13.027Z,91.60
2019-03-25T15:12:41.297Z,91.80
2019-03-25T15:15:10.573Z,91.80
2019-03-25T15:17:38.988Z,91.90
2019-03-25T15:20:10.190Z,92.10
2019-03-25T15:22:38.571Z,92.20
2019-03-25T15:25:09.114Z,92.40
2019-03-25T15:27:38.039Z,92.40
2019-03-25T15:30:08.030Z,92.30
2019-03-25T15:32:36.378Z,91.60
2019-03-25T15:35:06.358Z,91.50
2019-03-25T15:37:34.748Z,92.00
2019-03-25T15:40:04.297Z,92.30
2019-03-25T15:42:34.463Z,92.30
2019-03-25T15:45:05.301Z,92.60
2019-03-25T15:47:34.513Z,92.70
2019-03-25T15:50:04.539Z,92.90
2019-03-25T15:52:32.712Z,93.00
2019-03-25T15:55:01.734Z,93.10
2019-03-25T15:57:31.081Z,93.50
2019-03-25T16:00:00.609Z,93.90
2019-03-25T16:02:28.888Z,94.30
2019-03-25T16:05:01.226Z,94.20
2019-03-25T16:07:32.667Z,94.20
2019-03-25T16:10:05.123Z,94.20
2019-03-25T16:12:33.281Z,94.30
2019-03-25T16:15:03.273Z,94.30
2019-03-25T16:17:32.084Z,94.50
2019-03-25T16:20:00.793Z,94.80
2019-03-25T16:22:30.204Z,95.10
2019-03-25T16:24:58.457Z,95.50
2019-03-25T16:27:26.788Z,95.60
2019-03-25T16:29:55.106Z,95.80
2019-03-25T16:32:23.347Z,95.90
2019-03-25T16:34:51.680Z,96.00
2019-03-25T16:37:19.966Z,96.20
2019-03-25T16:39:48.247Z,96.20
2019-03-25T16:42:16.568Z,96.20
2019-03-25T16:44:44.879Z,96.30
2019-03-25T16:47:13.308Z,96.40
2019-03-25T16:49:41.900Z,96.40
2019-03-25T16:52:10.406Z,96.40
2019-03-25T16:55:04.840Z,96.50
2019-03-25T16:57:33.951Z,96.50
2019-03-25T17:00:02.427Z,96.40
2019-03-25T17:02:31.023Z,96.30
2019-03-25T17:05:00.305Z,95.90
2019-03-25T17:07:30.479Z,95.40
2019-03-25T17:09:59.848Z,95.10
2019-03-25T17:12:28.120Z,94.50
2019-03-25T17:14:56.411Z,94.20
2019-03-25T17:17:24.957Z,94.10
2019-03-25T17:19:53.316Z,94.00
2019-03-25T17:22:21.639Z,93.90
2019-03-25T17:24:50.477Z,93.90
2019-03-25T17:27:18.859Z,93.70
2019-03-25T17:29:47.807Z,93.70
2019-03-25T17:32:17.536Z,93.70
2019-03-25T17:34:45.960Z,93.80
2019-03-25T17:37:14.783Z,93.80
2019-03-25T17:39:43.183Z,93.80
2019-03-25T17:42:11.463Z,93.80
2019-03-25T17:44:40.121Z,94.00
2019-03-25T17:47:08.488Z,94.00
2019-03-25T17:49:36.865Z,94.00
2019-03-25T17:52:05.865Z,94.10
2019-03-25T17:54:34.243Z,94.30
2019-03-25T17:57:02.514Z,94.30
2019-03-25T17:59:30.919Z,94.30
2019-03-25T18:02:02.043Z,94.50
2019-03-25T18:04:30.524Z,94.20
2019-03-25T18:06:59.419Z,94.30
2019-03-25T18:09:28.398Z,94.20
2019-03-25T18:11:57.728Z,94.10
2019-03-25T18:14:27.805Z,94.00
2019-03-25T18:16:56.826Z,94.10
2019-03-25T18:19:25.709Z,94.10
2019-03-25T18:21:53.981Z,94.00
2019-03-25T18:24:22.271Z,94.20
2019-03-25T18:26:51.135Z,95.20
2019-03-25T18:29:20.447Z,94.40
2019-03-25T18:31:48.729Z,94.40
2019-03-25T18:34:16.886Z,94.30
2019-03-25T18:37:49.315Z,94.30
2019-03-25T18:40:25.532Z,94.50
2019-03-25T18:42:54.033Z,94.80
2019-03-25T18:45:22.361Z,94.90
2019-03-25T18:47:53.203Z,94.90
2019-03-25T18:50:22.582Z,94.80
2019-03-25T18:52:51.565Z,94.50
2019-03-25T18:55:19.831Z,94.60
2019-03-25T18:57:48.239Z,94.60
2019-03-25T19:00:30.338Z,95.00
2019-03-25T19:02:59.399Z,94.90
2019-03-25T19:05:28.696Z,94.80
2019-03-25T19:08:07.481Z,94.80
2019-03-25T19:10:44.371Z,95.20
2019-03-25T19:13:14.943Z,94.90
2019-03-25T19:15:43.288Z,95.10
2019-03-25T19:18:12.065Z,95.20
2019-03-25T19:20:40.336Z,94.90
2019-03-25T19:23:08.650Z,95.00
2019-03-25T19:25:37.129Z,94.50
2019-03-25T19:28:05.590Z,94.50
2019-03-25T19:30:38.856Z,94.30
2019-03-25T19:33:07.326Z,94.10
2019-03-25T19:35:35.842Z,93.90
2019-03-25T19:38:04.822Z,93.90
2019-03-25T19:40:33.106Z,94.00
2019-03-25T19:43:02.480Z,94.20
2019-03-25T19:45:30.868Z,94.20
2019-03-25T19:47:59.296Z,94.10
2019-03-25T19:50:27.674Z,94.20
2019-03-25T19:52:56.915Z,94.20
2019-03-25T19:55:25.109Z,94.10
2019-03-25T19:57:54.165Z,94.20
2019-03-25T20:00:37.654Z,94.20
2019-03-25T20:03:06.727Z,94.00
2019-03-25T20:05:35.712Z,94.00
2019-03-25T20:08:04.774Z,94.00
2019-03-25T20:10:34.458Z,93.70
2019-03-25T20:13:03.249Z,93.90
2019-03-25T20:15:44.952Z,94.20
2019-03-25T20:18:02.236Z,94.00
2019-03-25T20:20:30.612Z,94.10
2019-03-25T20:22:59.192Z,93.90
2019-03-25T20:25:27.674Z,93.90
2019-03-25T20:27:56.238Z,93.60
2019-03-25T20:30:25.678Z,92.90
2019-03-25T20:32:54.176Z,93.10
2019-03-25T20:35:22.800Z,92.50
2019-03-25T20:37:51.670Z,92.60
2019-03-25T20:40:20.006Z,92.30
2019-03-25T20:42:49.827Z,92.60
2019-03-25T20:45:18.851Z,92.60
2019-03-25T20:47:50.676Z,92.90
2019-03-25T20:50:20.714Z,93.40
2019-03-25T20:52:49.974Z,92.80
2019-03-25T20:55:18.606Z,92.80
2019-03-25T20:57:47.216Z,92.90
2019-03-25T21:00:19.976Z,92.80
2019-03-25T21:02:48.498Z,93.00
2019-03-25T21:05:17.117Z,92.90
2019-03-25T21:07:45.665Z,93.00
2019-03-25T21:10:14.152Z,93.10
2019-03-25T21:12:43.039Z,93.10
2019-03-25T21:15:11.824Z,93.10
2019-03-25T21:17:40.414Z,93.30
2019-03-25T21:20:09.414Z,93.00
2019-03-25T21:22:37.827Z,93.00
2019-03-25T21:25:07.863Z,93.20
2019-03-25T21:27:37.245Z,93.40
2019-03-25T21:30:19.858Z,93.20
2019-03-25T21:32:57.534Z,93.40
2019-03-25T21:35:18.798Z,93.40
2019-03-25T21:37:47.236Z,93.70
2019-03-25T21:40:15.625Z,93.70
2019-03-25T21:42:44.950Z,93.70
2019-03-25T21:45:13.381Z,94.00
2019-03-25T21:47:41.638Z,94.00
2019-03-25T21:50:12.456Z,94.20
2019-03-25T21:52:41.213Z,93.90
2019-03-25T21:55:09.690Z,94.00
2019-03-25T21:57:38.493Z,94.10
2019-03-25T22:00:07.335Z,93.90
2019-03-25T22:02:35.968Z,94.00
2019-03-25T22:05:04.876Z,94.10
2019-03-25T22:07:33.599Z,94.30
2019-03-25T22:10:01.936Z,94.80
2019-03-25T22:12:30.294Z,94.80
2019-03-25T22:15:01.445Z,95.10
2019-03-25T22:17:29.944Z,95.20
2019-03-25T22:19:58.200Z,95.60
2019-03-25T22:22:26.536Z,95.80
2019-03-25T22:24:55.362Z,96.50
2019-03-25T22:27:23.534Z,96.00
2019-03-25T22:29:52.631Z,96.00
2019-03-25T22:32:20.900Z,96.20
2019-03-25T22:34:49.147Z,96.30
2019-03-25T22:37:18.284Z,96.30
2019-03-25T22:39:46.439Z,97.00
2019-03-25T22:42:15.454Z,96.60
2019-03-25T22:44:44.535Z,96.50
2019-03-25T22:47:12.808Z,96.60
2019-03-25T22:49:41.983Z,96.60
2019-03-25T22:52:10.220Z,96.70
2019-03-25T22:54:38.449Z,96.70
2019-03-25T22:57:06.630Z,96.70
2019-03-25T22:59:34.938Z,96.90
2019-03-25T23:02:03.875Z,96.80
2019-03-25T23:04:33.231Z,97.20
2019-03-25T23:07:01.379Z,96.80
2019-03-25T23:09:29.584Z,96.60
2019-03-25T23:12:00.168Z,96.70
2019-03-25T23:14:28.354Z,96.80
2019-03-25T23:16:56.764Z,96.90
2019-03-25T23:19:25.238Z,96.80
2019-03-25T23:21:53.990Z,96.80
2019-03-25T23:24:22.173Z,96.80
2019-03-25T23:26:50.621Z,97.10
2019-03-25T23:29:18.890Z,96.80
2019-03-25T23:31:47.110Z,96.90
2019-03-25T23:34:15.539Z,96.90
2019-03-25T23:36:43.988Z,96.80
2019-03-25T23:39:12.167Z,96.90
2019-03-25T23:41:41.449Z,96.90
2019-03-25T23:44:09.640Z,97.20
2019-03-25T23:46:38.394Z,96.90
2019-03-25T23:49:06.760Z,96.90
2019-03-25T23:51:34.943Z,97.40
2019-03-25T23:54:13.918Z,97.40
2019-03-25T23:56:42.484Z,97.00
2019-03-25T23:59:11.449Z,96.80
